Station: Hobart Bushland Operations Depot (Hcc)  

  Atmospheric Gas Attenuation - ITU Rec 676-11   ----------------- dB/100km -----------------
Date Time Temp RH % AH g/m3 Dew Point Wind Direction Speed kph Gust kph Barometer mB Rainfall Since 9am 24GHz 47GHz 76GHz 122GHz 134GHz 241GHz
08/05 12:20 11.2 66 6.69 5.1 7 11 1013.1 0 15.6 23.6 33.5 87.5 76.5 261.5
08/05 12:00 11.4 63 6.47 4.7 7 13 1013.1 0 15.1 23.2 32.5 85.0 73.6 251.1
08/05 11:50 11.5 62 6.4 4.6 7 11 1013.1 0 15.0 23.0 32.2 84.2 72.6 247.7
08/05 11:40 11.7 60 6.28 4.3 9 15 1013.1 0 14.7 22.8 31.7 82.8 70.9 241.9
08/05 11:20 11.1 62 6.25 4.2 11 15 1013.1 0 14.7 22.9 31.8 83.1 71.1 242.4
08/05 11:10 10.9 64 6.37 4.4 9 17 1013.1 0 15.0 23.2 32.4 84.5 72.8 248.3
08/05 11:00 11.5 62 6.4 4.5 11 17 1013.1 0 15.0 23.0 32.2 84.2 72.6 247.7
08/05 10:50 11.3 64 6.53 4.8 9 13 1013.1 0 15.3 23.3 32.8 85.8 74.4 254.1
08/05 10:40 11.3 65 6.63 4.9 11 15 1013.1 0 15.5 23.5 33.2 86.8 75.7 258.5
08/05 10:30 11.4 60 6.16 4 7 15 1013.1 0 14.5 22.7 31.4 81.9 69.7 237.5
08/05 10:20 10.9 63 6.27 4.2 13 17 1013.1 0 14.7 23.0 32.0 83.5 71.5 243.9
08/05 10:10 10.7 62 6.09 3.8 11 17 1013.1 0 14.4 22.8 31.4 81.9 69.4 236.6
08/05 10:00 10.4 63 6.07 3.6 13 22 1013.1 0 14.3 22.8 31.4 82.0 69.4 236.6
08/05 09:50 10.1 66 6.24 4 11 22 1013.1 0 14.7 23.2 32.2 84.1 71.9 245.0
08/05 09:30 9.5 66 6.01 3.5 13 19 1013.1 0 14.2 23.0 31.5 82.3 69.5 236.6
08/05 09:20 9.6 65 5.96 3.3 7 11 1013.1 0 14.1 22.9 31.3 81.7 68.8 234.1
08/05 09:10 9.8 65 6.03 3.5 11 22 1013.1 0 14.3 22.9 31.5 82.2 69.5 236.6
08/05 08:50 9.3 66 5.93 3.3 9 17 1013.1 5.6 14.1 22.9 31.3 81.7 68.6 233.6
08/05 08:40 9.3 67 6.02 3.6 15 32 1013.1 5.6 14.3 23.0 31.7 82.6 69.8 237.6
08/05 08:30 9.5 66 6.01 3.5 13 22 1013.1 5.6 14.2 23.0 31.5 82.3 69.5 236.6
08/05 08:20 9.2 67 5.98 3.4 13 20 1013.1 5.6 14.2 23.0 31.5 82.3 69.4 236.1
08/05 08:10 8.9 70 6.13 3.8 13 24 1013.1 5.6 14.5 23.3 32.2 84.2 71.6 243.8
08/05 08:00 8.6 72 6.19 3.8 9 20 1013.1 5.6 14.7 23.5 32.6 85.1 72.6 247.4
08/05 07:50 8.5 72 6.15 3.8 9 13 1013.1 5.6 14.6 23.4 32.5 84.8 72.2 245.9
08/05 07:40 8.4 73 6.2 3.9 9 22 1013.1 5.6 14.7 23.5 32.7 85.5 72.9 248.5
08/05 07:30 8.3 74 6.24 4 9 13 1013.1 5.6 14.8 23.6 32.9 86.0 73.5 250.6
08/05 07:20 8.5 73 6.24 4 9 15 1013.1 5.6 14.8 23.6 32.8 85.8 73.3 250.0
08/05 07:10 8.4 74 6.28 4 6 7 1013.1 5.6 14.9 23.7 33.0 86.3 74.0 252.1
08/05 07:00 8.4 73 6.2 3.8 11 19 1013.1 5.6 14.7 23.5 32.7 85.5 72.9 248.5
08/05 06:50 8.3 73 6.16 3.8 11 17 1013.1 5.6 14.6 23.5 32.6 85.2 72.5 247.0
08/05 06:40 8.3 73 6.16 3.8 13 20 1013.1 5.6 14.6 23.5 32.6 85.2 72.5 247.0
08/05 06:20 7.8 81 6.61 4.8 9 13 1013.1 5.6 15.6 24.4 34.6 90.5 78.9 269.3
08/05 06:10 7.8 82 6.7 5 7 13 1013.1 5.6 15.8 24.5 35.0 91.5 80.1 273.5
08/05 06:00 8 82 6.78 5.2 7 17 1013.1 5.6 15.9 24.6 35.2 92.1 80.9 276.5
08/05 05:40 8.2 78 6.53 4.6 7 9 1013.1 5.4 15.4 24.1 34.1 89.2 77.4 264.2
08/05 05:20 8.1 79 6.58 4.7 7 13 1013.1 5.4 15.5 24.2 34.3 89.8 78.2 266.9
08/05 05:10 8.3 80 6.75 5 7 13 1013.1 5.4 15.9 24.4 34.9 91.4 80.2 274.1
08/05 05:00 8.6 75 6.45 4.4 7 17 1013.1 5.2 15.2 23.9 33.6 87.9 76.0 259.2
08/05 04:50 8.7 74 6.4 4.3 11 17 1013.1 5.2 15.1 23.8 33.4 87.2 75.2 256.6
08/05 04:40 8.6 73 6.28 4 11 17 1013.1 5.2 14.8 23.6 32.9 86.1 73.8 251.5
08/05 04:30 8.5 75 6.41 4.4 9 15 1013.1 5.2 15.1 23.8 33.5 87.6 75.6 257.7
08/05 04:20 8.7 75 6.49 4.5 11 20 1013.1 5.2 15.3 23.9 33.7 88.2 76.4 260.7
08/05 04:10 8.6 75 6.45 4.5 11 17 1013.1 5.2 15.2 23.9 33.6 87.9 76.0 259.2
08/05 04:00 8.8 75 6.53 4.6 11 15 1013.1 5.2 15.4 24.0 33.8 88.5 76.8 262.2
08/05 03:50 9 70 6.17 3.9 11 15 1013.1 5.2 14.6 23.3 32.4 84.5 72.0 245.3
08/05 03:40 9.1 70 6.21 4 11 17 1013.1 5.2 14.7 23.4 32.5 84.8 72.4 246.7
08/05 03:30 9 71 6.26 4 9 13 1013.1 5.2 14.8 23.5 32.7 85.4 73.1 249.3
08/05 03:20 9.2 70 6.25 4 11 17 1013.1 5.2 14.8 23.4 32.6 85.1 72.8 248.2
08/05 03:10 8.9 73 6.4 4.3 11 19 1013.1 5.2 15.1 23.7 33.3 87.0 75.0 256.0
08/05 03:00 9.2 73 6.52 4.7 9 19 1013.1 5.2 15.3 23.8 33.6 88.0 76.3 260.5
08/05 02:50 9.3 70 6.29 4.2 13 19 1013.1 5.2 14.8 23.4 32.7 85.4 73.2 249.7
08/05 02:40 9.5 70 6.37 4.3 13 20 1013.1 5.2 15.0 23.5 32.9 86.1 74.1 252.7
08/05 02:30 9.5 69 6.28 4.1 11 19 1013.1 5.2 14.8 23.4 32.6 85.1 72.9 248.6
08/05 02:20 9.5 70 6.37 4.3 11 19 1013.1 5.2 15.0 23.5 32.9 86.1 74.1 252.7
08/05 02:10 9.4 73 6.6 4.9 9 13 1013.1 5.2 15.5 23.9 33.9 88.6 77.1 263.4
08/05 02:00 9.5 75 6.83 5.4 11 19 1013.1 5.2 16.0 24.2 34.7 90.9 80.0 273.6
08/05 01:50 9.4 76 6.88 5.4 9 17 1013.1 5.2 16.1 24.4 35.0 91.5 80.8 276.3
08/05 01:40 9.2 76 6.79 5.2 9 20 1013.1 5.2 15.9 24.3 34.7 90.8 79.8 272.8
08/05 01:30 9.2 84 7.5 6.6 6 11 1013.1 5.2 17.4 25.4 37.6 98.5 89.3 305.9
08/05 01:20 9.6 79 7.24 6.2 9 15 1013.1 5.2 16.9 24.9 36.3 95.1 85.3 292.2
08/05 01:10 10 73 6.86 5.4 7 13 1013.1 5 16.0 24.2 34.6 90.6 79.9 273.3
08/05 01:00 10 71 6.67 5.1 9 11 1013.1 5 15.6 23.9 33.9 88.6 77.5 264.6
08/05 00:50 10 72 6.77 5.3 9 22 1013.1 5 15.8 24.0 34.3 89.7 78.7 269.2
08/05 00:40 10 71 6.67 5 9 13 1013.1 5 15.6 23.9 33.9 88.6 77.5 264.6
08/05 00:30 9.9 74 6.91 5.6 9 13 1013.1 5 16.1 24.3 34.9 91.3 80.7 275.9
08/05 00:20 10.1 72 6.81 5.3 11 13 1013.1 5 15.9 24.1 34.4 90.0 79.2 270.6
08/05 00:10 10.1 71 6.72 5.1 13 19 1013.1 5 15.7 23.9 34.0 89.0 78.0 266.5
08/05 00:00 10.3 70 6.71 5.2 13 15 1013.1 5 15.7 23.8 33.9 88.7 77.7 265.4
07/05 23:50 10.4 69 6.65 5.1 13 22 1013.1 5 15.6 23.7 33.6 88.0 76.8 262.4
07/05 23:40 10.3 73 6.99 5.7 11 13 1013.1 5 16.3 24.3 35.0 91.7 81.3 278.1
07/05 23:30 10.2 74 7.04 5.9 9 20 1013.1 5 16.4 24.4 35.3 92.3 82.1 280.8
07/05 23:20 10.1 81 7.66 7 7 13 1013.1 5 17.7 25.4 37.8 99.1 90.4 309.9
07/05 23:10 10.2 79 7.52 6.8 9 15 1013.1 5 17.4 25.2 37.2 97.4 88.4 303.0
07/05 22:50 10.3 79 7.57 6.8 7 11 1013.1 4.8 17.5 25.2 37.3 97.9 88.9 304.9
07/05 22:40 10.6 79 7.71 7.1 9 13 1013.1 4.4 17.8 25.4 37.8 99.0 90.5 310.3
07/05 22:20 10.5 77 7.47 6.6 9 13 1013.1 3.8 17.3 25.0 36.8 96.5 87.4 299.5
07/05 22:10 10.4 79 7.62 7 9 15 1013.1 3.8 17.6 25.3 37.5 98.3 89.5 306.9
07/05 22:00 10.3 78 7.47 6.7 9 15 1013.1 3.6 17.3 25.1 36.9 96.8 87.6 300.3
07/05 21:50 10.3 79 7.57 6.8 7 15 1013.1 3 17.5 25.2 37.3 97.9 88.9 304.9
07/05 21:40 10.3 79 7.57 6.8 7 13 1013.1 2 17.5 25.2 37.3 97.9 88.9 304.9
07/05 21:30 10.7 76 7.47 6.6 7 9 1013.1 1.2 17.3 24.9 36.7 96.3 87.2 298.7
07/05 21:10 10.8 75 7.41 6.6 11 15 1013.1 0.6 17.2 24.8 36.5 95.5 86.3 295.6
07/05 21:00 11.1 67 6.75 5.2 7 13 1013.1 0 15.8 23.7 33.7 88.2 77.4 264.6
07/05 20:50 11.2 67 6.79 5.4 11 17 1013.1 0 15.8 23.7 33.8 88.5 77.8 266.0
07/05 20:30 11.9 59 6.25 4.2 15 20 1013.1 0 14.7 22.7 31.5 82.3 70.4 240.0
07/05 20:20 11.7 59 6.17 4 15 22 1013.1 0 14.5 22.6 31.3 81.7 69.5 237.1
07/05 20:10 11 59 5.91 3.4 11 20 1013.1 0 14.0 22.4 30.6 79.8 66.9 227.8
07/05 20:00 10.3 62 5.94 3.4 13 20 1013.1 0 14.1 22.6 31.0 80.8 67.9 231.2
07/05 19:50 9.4 63 5.7 2.7 11 15 1013.1 0 13.6 22.5 30.4 79.3 65.7 223.2
07/05 19:40 8.3 66 5.57 2.3 11 15 1013.1 0 13.3 22.6 30.3 79.0 64.9 220.5
07/05 19:30 6.4 77 5.74 2.7 7 13 1013.1 0 13.8 23.3 31.7 82.8 68.8 233.6
07/05 19:10 5.7 81 5.77 2.7 9 13 1013.1 0 13.9 23.6 32.1 83.8 69.8 237.1
07/05 19:00 5.7 82 5.84 2.9 9 15 1013.1 0 14.0 23.7 32.4 84.6 70.7 240.3
07/05 18:50 5.8 81 5.81 2.8 9 17 1013.1 0 13.9 23.6 32.2 84.1 70.2 238.6
07/05 18:40 6 79 5.74 2.6 11 22 1013.1 0 13.8 23.4 31.9 83.2 69.1 234.8
07/05 18:30 6.2 76 5.59 2.4 13 17 1013.1 0 13.5 23.1 31.2 81.4 67.0 227.3
07/05 18:20 6.4 74 5.52 2.1 13 20 1013.1 0 13.3 23.0 30.8 80.4 65.9 223.6
07/05 18:00 6.5 71 5.33 1.6 15 19 1013.1 0 12.9 22.7 30.1 78.4 63.4 214.7
07/05 17:50 6.5 71 5.33 1.7 15 19 1013.1 0 12.9 22.7 30.1 78.4 63.4 214.7
07/05 17:40 6.4 70 5.22 1.3 13 19 1013.1 0 12.7 22.5 29.7 77.3 62.0 210.0

Last Refresh: 08-May-2026 12:09:22

Bureau of Meteorology